Time;durP1;ratioP1;P1;durP2;ratioP2;P2;SDS_P1;SDS_P2;PMS_P1;PMS_P2;Temp;Humidity;BMP_temperature;BMP_pressure;BME280_temperature;BME280_humidity;BME280_pressure;Samples;Min_cycle;Max_cycle;Signal;HPM_P1;HPM_P2
2022/08/19 00:01:22;;;;;;;4.13;2.90;;;;;;;26.33;46.15;99718.13;4862446;29;20025;-90
2022/08/19 00:03:48;;;;;;;4.38;2.92;;;;;;;26.32;46.44;99719.06;4863602;29;20040;-90
2022/08/19 00:06:14;;;;;;;3.97;2.80;;;;;;;26.31;46.38;99714.72;4863034;29;20026;-89
2022/08/19 00:08:40;;;;;;;4.95;3.17;;;;;;;26.31;46.23;99710.22;4856661;29;20040;-90
2022/08/19 00:11:07;;;;;;;3.75;2.70;;;;;;;26.31;46.38;99720.91;4855371;29;20070;-88
2022/08/19 00:13:33;;;;;;;4.22;2.80;;;;;;;26.31;46.33;99725.41;4856929;29;20480;-88
2022/08/19 00:16:00;;;;;;;3.65;2.88;;;;;;;26.30;46.29;99718.34;4854653;29;20029;-88
2022/08/19 00:18:26;;;;;;;4.45;2.83;;;;;;;26.28;46.39;99721.16;4853437;29;20064;-87
2022/08/19 00:20:52;;;;;;;4.40;3.00;;;;;;;26.27;46.43;99725.66;4854574;29;20049;-88
2022/08/19 00:23:18;;;;;;;4.25;2.80;;;;;;;26.26;46.31;99729.28;4855226;29;20025;-87
2022/08/19 00:25:44;;;;;;;3.85;3.03;;;;;;;26.26;46.38;99731.13;4856458;29;20048;-88
2022/08/19 00:28:10;;;;;;;4.65;3.00;;;;;;;26.24;46.47;99728.56;4854853;29;20029;-89
2022/08/19 00:30:36;;;;;;;4.35;3.10;;;;;;;26.23;46.46;99729.53;4854745;29;20026;-88
2022/08/19 00:33:03;;;;;;;3.75;3.00;;;;;;;26.23;46.66;99732.22;4871312;29;20033;-87
2022/08/19 00:35:29;;;;;;;3.97;3.03;;;;;;;26.21;46.40;99726.13;4855883;29;20030;-89
2022/08/19 00:37:55;;;;;;;4.38;3.08;;;;;;;26.23;46.35;99732.22;4854375;29;20049;-88
2022/08/19 00:40:21;;;;;;;4.53;3.00;;;;;;;26.21;46.42;99726.13;4855438;29;20045;-87
2022/08/19 00:42:47;;;;;;;4.25;3.13;;;;;;;26.21;46.38;99722.59;4857121;29;20036;-87
2022/08/19 00:45:17;;;;;;;4.53;3.00;;;;;;;26.21;46.24;99725.25;4854889;29;20033;-87
2022/08/19 00:47:44;;;;;;;4.70;3.08;;;;;;;26.21;46.42;99719.91;4853171;29;20037;-87
2022/08/19 00:50:14;;;;;;;4.38;3.35;;;;;;;26.19;46.33;99717.34;4853524;29;20029;-89
2022/08/19 00:52:45;;;;;;;3.60;3.13;;;;;;;26.18;46.46;99721.00;4870106;29;20368;-88
2022/08/19 00:55:14;;;;;;;4.25;3.38;;;;;;;26.19;46.37;99711.16;4884841;29;20089;-88
2022/08/19 00:57:44;;;;;;;4.30;2.95;;;;;;;26.17;46.32;99713.97;4854675;29;20029;-88
2022/08/19 01:00:13;;;;;;;3.83;3.00;;;;;;;26.19;46.36;99722.69;4854638;29;20047;-87
2022/08/19 01:02:40;;;;;;;4.57;3.47;;;;;;;26.17;46.34;99715.75;4853084;29;20049;-88
2022/08/19 01:05:12;;;;;;;4.15;3.22;;;;;;;26.16;46.58;99714.94;4853656;29;20025;-89
2022/08/19 01:07:40;;;;;;;4.25;3.10;;;;;;;26.16;46.43;99717.59;4870257;29;20102;-88
2022/08/19 01:10:10;;;;;;;5.28;3.72;;;;;;;26.15;46.27;99713.25;4852953;29;20033;-88
2022/08/19 01:12:37;;;;;;;4.55;3.45;;;;;;;26.15;46.61;99715.91;4852815;29;20029;-89
2022/08/19 01:15:05;;;;;;;4.50;3.30;;;;;;;26.15;46.33;99705.22;4854034;29;20025;-89
2022/08/19 01:17:31;;;;;;;5.75;3.33;;;;;;;26.13;46.52;99707.13;4855114;29;20057;-87
2022/08/19 01:19:57;;;;;;;4.35;3.13;;;;;;;26.14;46.45;99708.84;4855584;29;20045;-89
2022/08/19 01:22:53;;;;;;;4.72;3.47;;;;;;;26.12;46.52;99710.78;4855137;29;20022;-88
2022/08/19 01:25:24;;;;;;;4.78;3.88;;;;;;;26.12;46.41;99710.78;4848029;29;20132;-86
2022/08/19 01:27:51;;;;;;;5.15;3.55;;;;;;;26.10;46.44;99713.59;4854142;29;20101;-88
2022/08/19 01:30:22;;;;;;;4.07;3.17;;;;;;;26.11;46.54;99714.44;4854026;29;20133;-88
2022/08/19 01:32:49;;;;;;;5.18;3.33;;;;;;;26.11;46.49;99703.75;4853645;29;20112;-89
2022/08/19 01:35:17;;;;;;;4.60;3.35;;;;;;;26.12;46.65;99716.13;4883106;29;20463;-90
2022/08/19 01:38:08;;;;;;;4.50;3.55;;;;;;;26.10;46.33;99700.22;4852984;29;20037;-89
2022/08/19 01:40:37;;;;;;;5.07;3.67;;;;;;;26.10;46.49;99707.41;4886434;29;20071;-87
2022/08/19 01:43:03;;;;;;;4.50;3.03;;;;;;;26.09;46.55;99708.34;4854327;29;20040;-88
2022/08/19 01:45:31;;;;;;;4.55;3.40;;;;;;;26.08;46.66;99703.97;4854001;29;20367;-88
2022/08/19 01:47:59;;;;;;;5.03;3.45;;;;;;;26.07;46.41;99704.94;4870101;29;20033;-87
2022/08/19 01:50:25;;;;;;;5.05;3.78;;;;;;;26.09;46.63;99705.66;4852681;29;20033;-88
2022/08/19 01:52:51;;;;;;;4.15;3.20;;;;;;;26.07;46.30;99702.28;4852840;29;20037;-89
2022/08/19 01:55:20;;;;;;;4.68;3.38;;;;;;;26.07;46.29;99707.63;4852275;29;20381;-89
2022/08/19 01:57:50;;;;;;;4.90;3.53;;;;;;;26.07;46.64;99715.66;4853682;29;20033;-88
2022/08/19 02:00:19;;;;;;;4.78;3.67;;;;;;;26.05;46.44;99714.94;4853311;29;20057;-88
2022/08/19 02:02:44;;;;;;;4.93;3.45;;;;;;;26.05;46.42;99710.41;4853232;29;20037;-89
2022/08/19 02:05:11;;;;;;;6.00;4.05;;;;;;;26.04;46.45;99713.22;4853250;29;20106;-87
2022/08/19 02:07:37;;;;;;;4.20;3.13;;;;;;;26.03;46.57;99714.19;4854434;29;20372;-88
2022/08/19 02:10:06;;;;;;;4.85;3.78;;;;;;;26.03;46.65;99724.88;4854154;29;20029;-87
2022/08/19 02:12:31;;;;;;;5.32;4.03;;;;;;;26.03;46.64;99730.22;4855357;29;20069;-89
2022/08/19 02:14:58;;;;;;;4.78;4.03;;;;;;;25.99;46.72;99722.47;4855938;29;20038;-89
2022/08/19 02:17:24;;;;;;;4.93;3.80;;;;;;;25.99;46.68;99725.13;4857897;29;20037;-89
2022/08/19 02:19:49;;;;;;;5.93;3.53;;;;;;;25.98;46.73;99726.09;4859835;29;20073;-90
2022/08/19 02:22:15;;;;;;;4.68;3.58;;;;;;;25.98;46.38;99731.47;4861613;29;20089;-91
2022/08/19 02:24:41;;;;;;;4.15;3.20;;;;;;;25.98;46.52;99726.09;4862970;29;20089;-89
2022/08/19 02:27:07;;;;;;;4.95;3.80;;;;;;;25.97;46.60;99729.75;4863882;29;20089;-89
2022/08/19 02:29:32;;;;;;;4.50;3.15;;;;;;;25.97;46.41;99729.75;4859923;29;20026;-87
2022/08/19 02:31:58;;;;;;;4.78;3.53;;;;;;;25.96;46.45;99728.03;4858136;29;20029;-88
2022/08/19 02:34:24;;;;;;;5.22;3.53;;;;;;;25.97;46.24;99735.09;4872413;29;20029;-90
2022/08/19 02:36:51;;;;;;;4.40;3.40;;;;;;;25.96;46.74;99735.22;4855739;29;20355;-88
2022/08/19 02:39:17;;;;;;;5.40;3.75;;;;;;;25.95;46.61;99731.69;4855486;29;20375;-89
2022/08/19 02:41:43;;;;;;;5.22;4.07;;;;;;;25.95;46.52;99737.03;4856279;29;20034;-89
2022/08/19 02:44:08;;;;;;;4.80;3.60;;;;;;;25.94;46.88;99734.47;4855767;29;20034;-88
2022/08/19 02:46:35;;;;;;;5.45;3.83;;;;;;;25.92;46.78;99731.94;4857564;29;20047;-89
2022/08/19 02:49:04;;;;;;;5.25;3.95;;;;;;;25.92;46.43;99731.94;4875355;29;20039;-89
2022/08/19 02:51:39;;;;;;;4.30;3.25;;;;;;;25.92;46.75;99737.28;4855870;29;20025;-88
2022/08/19 02:54:06;;;;;;;4.90;3.78;;;;;;;25.92;46.50;99739.09;4857332;29;20025;-90
2022/08/19 02:56:35;;;;;;;4.90;4.00;;;;;;;25.91;46.75;99735.56;4856803;29;20029;-88
2022/08/19 02:59:01;;;;;;;4.45;3.47;;;;;;;25.91;46.63;99732.06;4854941;29;20060;-89
2022/08/19 03:01:31;;;;;;;4.55;3.40;;;;;;;25.90;46.51;99741.88;4873158;29;20041;-86
2022/08/19 03:03:59;;;;;;;4.57;3.60;;;;;;;25.90;46.73;99749.06;4855625;29;20061;-89
2022/08/19 03:06:24;;;;;;;4.85;3.83;;;;;;;25.90;46.75;99749.06;4856301;29;20123;-87
2022/08/19 03:08:51;;;;;;;5.63;4.00;;;;;;;25.88;46.62;99733.13;4855695;29;20053;-89
2022/08/19 03:11:21;;;;;;;4.70;3.50;;;;;;;25.90;46.47;99744.56;4873019;29;20033;-87
2022/08/19 03:13:48;;;;;;;5.28;3.72;;;;;;;25.90;46.46;99741.88;4856118;29;20060;-87
2022/08/19 03:16:15;;;;;;;5.78;3.90;;;;;;;25.89;46.46;99748.19;4855802;29;20041;-87
2022/08/19 03:18:42;;;;;;;4.90;3.28;;;;;;;25.87;46.55;99739.47;4854338;29;20060;-89
2022/08/19 03:21:07;;;;;;;5.03;3.75;;;;;;;25.88;46.64;99749.19;4854445;29;20037;-87
2022/08/19 03:23:33;;;;;;;4.45;3.50;;;;;;;25.87;46.72;99742.13;4854719;29;20100;-87
2022/08/19 03:26:03;;;;;;;4.97;3.40;;;;;;;25.86;46.44;99748.44;4885530;29;20064;-87
2022/08/19 03:28:28;;;;;;;5.45;3.50;;;;;;;25.86;46.61;99748.44;4854667;29;20065;-89
2022/08/19 03:30:58;;;;;;;4.80;3.80;;;;;;;25.85;46.48;99742.25;4854397;29;20037;-87
2022/08/19 03:33:24;;;;;;;5.03;3.17;;;;;;;25.86;46.78;99745.78;4855804;29;20044;-88
2022/08/19 03:36:23;;;;;;;5.43;3.50;;;;;;;25.83;46.73;99736.19;4855416;29;20109;-89
2022/08/19 03:38:54;;;;;;;4.60;3.25;;;;;;;25.83;46.77;99743.34;4849981;29;20109;-89
2022/08/19 03:41:23;;;;;;;5.28;4.13;;;;;;;25.83;46.92;99749.53;4854624;29;20037;-88
2022/08/19 03:43:49;;;;;;;5.00;3.88;;;;;;;25.82;46.76;99753.16;4854144;29;20388;-87
2022/08/19 03:46:33;;;;;;;5.03;3.67;;;;;;;25.82;46.62;99753.16;4854530;29;20041;-89
2022/08/19 03:49:08;;;;;;;5.45;3.90;;;;;;;25.81;46.49;99755.97;4855454;29;20033;-87
2022/08/19 03:51:37;;;;;;;6.17;4.30;;;;;;;25.81;46.75;99761.31;4856079;29;20038;-89
2022/08/19 03:54:05;;;;;;;4.70;3.63;;;;;;;25.80;46.74;99756.94;4856325;29;20353;-88
2022/08/19 03:56:34;;;;;;;5.00;3.80;;;;;;;25.79;46.77;99763.25;4870157;29;20040;-90
2022/08/19 03:59:00;;;;;;;5.03;3.90;;;;;;;25.79;46.75;99757.88;4853643;29;20049;-87
2022/08/19 04:01:28;;;;;;;5.95;3.60;;;;;;;25.80;46.94;99754.28;4885601;29;20033;-87
2022/08/19 04:03:55;;;;;;;5.10;3.60;;;;;;;25.77;46.85;99750.03;4871273;29;20044;-88
2022/08/19 04:06:27;;;;;;;5.00;3.63;;;;;;;25.77;46.68;99759.84;4854844;29;20032;-89
2022/08/19 04:08:54;;;;;;;5.05;3.70;;;;;;;25.77;46.87;99765.19;4856459;29;20029;-88
2022/08/19 04:11:23;;;;;;;4.88;3.60;;;;;;;25.76;46.81;99758.16;4854410;29;20467;-89
2022/08/19 04:13:51;;;;;;;5.00;3.80;;;;;;;25.76;46.64;99768.84;4885982;29;20037;-89
2022/08/19 04:16:19;;;;;;;4.53;3.67;;;;;;;25.74;46.63;99772.47;4854415;29;20041;-89
2022/08/19 04:18:46;;;;;;;6.28;3.90;;;;;;;25.73;46.55;99775.25;4885514;29;20118;-90
2022/08/19 04:21:20;;;;;;;5.50;3.95;;;;;;;25.73;46.90;99778.78;4854302;29;20034;-88
2022/08/19 04:23:46;;;;;;;4.88;3.78;;;;;;;25.72;46.60;99785.09;4854271;29;20377;-86
2022/08/19 04:26:18;;;;;;;4.93;3.58;;;;;;;25.72;46.55;99785.09;4855763;29;20029;-87
2022/08/19 04:28:44;;;;;;;5.57;4.05;;;;;;;25.71;46.67;99790.56;4855981;29;20029;-89
2022/08/19 04:31:19;;;;;;;4.55;3.60;;;;;;;25.71;46.61;99782.56;4855452;29;20040;-89
2022/08/19 04:33:44;;;;;;;5.03;3.97;;;;;;;25.71;46.69;99788.75;4854997;29;20105;-89
2022/08/19 04:36:37;;;;;;;5.03;3.75;;;;;;;25.69;46.88;99796.03;4856893;29;20049;-88
2022/08/19 04:39:07;;;;;;;4.72;3.45;;;;;;;25.70;46.96;99797.72;4858038;29;20037;-89
2022/08/19 04:44:17;;;;;;;5.05;3.60;;;;;;;25.69;46.81;99804.06;4879889;29;20444;-89
2022/08/19 04:46:44;;;;;;;5.85;3.80;;;;;;;25.68;46.70;99805.03;4862624;29;20051;-89
2022/08/19 04:49:11;;;;;;;5.90;3.65;;;;;;;25.67;46.86;99803.28;4860341;29;20033;-88
2022/08/19 04:51:39;;;;;;;5.07;3.60;;;;;;;25.66;46.70;99806.94;4856211;29;20029;-88
2022/08/19 04:54:04;;;;;;;5.07;3.58;;;;;;;25.66;46.78;99806.94;4856103;29;20456;-88
2022/08/19 04:56:30;;;;;;;5.05;3.65;;;;;;;25.64;46.62;99808.88;4852469;29;20040;-88
2022/08/19 04:58:57;;;;;;;6.60;4.03;;;;;;;25.64;46.77;99813.38;4852685;29;20448;-88
2022/08/19 05:01:26;;;;;;;5.50;4.13;;;;;;;25.64;46.80;99808.88;4852610;29;20026;-87
2022/08/19 05:03:52;;;;;;;5.95;3.55;;;;;;;25.64;47.00;99814.22;4853023;29;20088;-88
2022/08/19 05:06:20;;;;;;;4.53;3.88;;;;;;;25.63;47.00;99812.53;4868405;29;20025;-87
2022/08/19 05:08:47;;;;;;;5.63;3.78;;;;;;;25.63;46.72;99817.88;4852559;29;20033;-89
2022/08/19 05:11:17;;;;;;;7.03;3.90;;;;;;;25.62;46.80;99816.19;4852796;29;20049;-88
2022/08/19 05:13:44;;;;;;;5.65;3.88;;;;;;;25.62;46.67;99821.53;4884450;29;20040;-89
2022/08/19 05:16:12;;;;;;;6.43;4.20;;;;;;;25.62;46.69;99818.84;4851424;29;20030;-87
2022/08/19 05:24:08;;;;;;;5.65;4.22;;;;;;;25.63;46.66;99823.22;4868435;29;20045;-89
2022/08/19 05:26:38;;;;;;;5.93;4.10;;;;;;;25.62;46.86;99820.66;4851923;29;20033;-89
2022/08/19 05:29:05;;;;;;;5.55;4.13;;;;;;;25.62;46.79;99821.53;4869062;29;20056;-89
2022/08/19 05:31:31;;;;;;;4.95;3.40;;;;;;;25.60;46.51;99823.44;4853435;29;20132;-88
2022/08/19 05:33:58;;;;;;;5.55;3.72;;;;;;;25.61;46.61;99819.78;4853721;29;20033;-87
2022/08/19 05:36:25;;;;;;;5.53;3.80;;;;;;;25.62;46.70;99823.31;4853282;29;20425;-88
2022/08/19 05:38:52;;;;;;;4.70;3.65;;;;;;;25.59;46.94;99822.59;4853823;29;20033;-87
2022/08/19 05:41:20;;;;;;;4.10;3.28;;;;;;;25.59;46.71;99827.09;4853073;29;20089;-89
2022/08/19 05:43:46;;;;;;;4.35;3.38;;;;;;;25.57;46.78;99829.03;4854277;29;20029;-89
2022/08/19 05:46:19;;;;;;;4.43;3.40;;;;;;;25.58;46.78;99830.72;4852948;29;20092;-88
2022/08/19 05:48:46;;;;;;;4.90;3.80;;;;;;;25.58;46.87;99825.38;4854528;29;20480;-89
2022/08/19 05:51:12;;;;;;;4.97;3.78;;;;;;;25.57;46.70;99826.34;4853887;29;20128;-88
2022/08/19 05:53:38;;;;;;;5.10;3.53;;;;;;;25.58;46.69;99836.06;4855420;29;20030;-89
2022/08/19 05:56:10;;;;;;;5.70;4.18;;;;;;;25.58;46.78;99836.06;4851484;29;20128;-89
2022/08/19 05:58:37;;;;;;;4.88;3.67;;;;;;;25.58;46.68;99841.41;4852365;29;20474;-89
2022/08/19 06:01:08;;;;;;;4.57;3.55;;;;;;;25.58;46.72;99839.56;4856159;29;20474;-89
2022/08/19 06:03:37;;;;;;;5.30;3.97;;;;;;;25.57;47.02;99839.72;4889737;29;20037;-88
2022/08/19 06:06:03;;;;;;;4.80;3.80;;;;;;;25.57;46.65;99845.06;4857624;29;20038;-88
2022/08/19 06:08:29;;;;;;;4.97;3.45;;;;;;;25.54;46.62;99839.94;4856745;29;20063;-87
2022/08/19 06:10:56;;;;;;;4.90;3.70;;;;;;;25.57;46.81;99850.41;4856634;29;20025;-88
2022/08/19 06:13:23;;;;;;;5.15;3.78;;;;;;;25.57;46.56;99861.09;4857245;29;20036;-89
2022/08/19 06:15:49;;;;;;;5.70;4.00;;;;;;;25.56;46.67;99860.22;4857856;29;20029;-89
2022/08/19 06:18:15;;;;;;;4.57;3.25;;;;;;;25.57;46.72;99858.41;4856001;29;20072;-87
2022/08/19 06:20:42;;;;;;;4.88;3.60;;;;;;;25.56;46.87;99860.22;4855528;29;20053;-88
2022/08/19 06:23:08;;;;;;;4.57;3.50;;;;;;;25.57;46.90;99871.78;4871546;29;20026;-89
2022/08/19 06:25:34;;;;;;;4.90;3.67;;;;;;;25.56;46.92;99864.72;4855280;29;20069;-88
2022/08/19 06:28:00;;;;;;;4.93;3.92;;;;;;;25.56;46.79;99865.56;4856082;29;20036;-89
2022/08/19 06:30:26;;;;;;;5.05;3.90;;;;;;;25.56;46.67;99880.75;4871673;29;20348;-89
2022/08/19 06:32:52;;;;;;;5.32;4.20;;;;;;;25.56;46.57;99876.25;4856074;29;20105;-88
2022/08/19 06:35:18;;;;;;;5.07;3.63;;;;;;;25.58;46.59;99873.47;4856577;29;20495;-88
2022/08/19 06:37:44;;;;;;;5.03;3.72;;;;;;;25.57;46.84;99871.78;4857210;29;20055;-90
2022/08/19 06:40:12;;;;;;;5.93;4.22;;;;;;;25.57;46.62;99869.09;4887786;29;20111;-88
2022/08/19 06:42:38;;;;;;;4.43;3.33;;;;;;;25.56;46.61;99875.41;4858648;29;20030;-88
2022/08/19 06:45:05;;;;;;;5.10;3.60;;;;;;;25.55;46.83;99881.72;4858347;29;20030;-90
2022/08/19 06:47:34;;;;;;;5.40;3.80;;;;;;;25.56;46.50;99875.41;4858814;29;20021;-88
2022/08/19 06:50:02;;;;;;;5.18;3.90;;;;;;;25.57;46.93;99877.13;4889984;29;20363;-90
2022/08/19 06:52:35;;;;;;;4.78;3.70;;;;;;;25.58;46.62;99879.66;4861744;29;20089;-87
2022/08/19 06:55:01;;;;;;;6.07;4.18;;;;;;;25.58;46.63;99873.47;4860035;29;20025;-89
2022/08/19 06:57:32;;;;;;;4.95;3.88;;;;;;;25.58;46.92;99885.00;4860628;29;20034;-90
2022/08/19 06:59:59;;;;;;;5.93;4.13;;;;;;;25.58;46.40;99884.16;4861939;29;20025;-90
2022/08/19 07:02:26;;;;;;;5.18;3.80;;;;;;;25.58;46.63;99887.66;4865032;29;20170;-89
2022/08/19 07:04:52;;;;;;;5.53;3.95;;;;;;;25.60;46.57;99887.56;4865643;29;20116;-90
2022/08/19 07:07:20;;;;;;;5.28;3.65;;;;;;;25.59;46.78;99896.56;4881357;29;20036;-90
2022/08/19 07:09:46;;;;;;;4.28;3.38;;;;;;;25.60;46.64;99895.59;4865452;29;20066;-90
2022/08/19 07:12:15;;;;;;;4.82;3.58;;;;;;;25.59;46.54;99900.09;4858366;29;20104;-90
2022/08/19 07:14:42;;;;;;;5.47;3.95;;;;;;;25.60;46.61;99906.28;4856849;29;20057;-87
2022/08/19 07:17:10;;;;;;;5.18;3.70;;;;;;;25.58;46.67;99894.84;4856965;29;20033;-88
2022/08/19 07:19:37;;;;;;;5.43;3.70;;;;;;;25.60;46.61;99900.94;4856213;29;20053;-87
2022/08/19 07:22:05;;;;;;;6.00;3.80;;;;;;;25.58;46.69;99903.69;4856045;29;20021;-87
2022/08/19 07:24:32;;;;;;;4.70;3.42;;;;;;;25.60;46.75;99903.59;4856622;29;20105;-87
2022/08/19 07:27:02;;;;;;;5.45;3.72;;;;;;;25.60;46.54;99908.94;4855369;29;20065;-88
2022/08/19 07:29:30;;;;;;;4.60;3.50;;;;;;;25.59;46.80;99907.25;4855099;29;20029;-87
2022/08/19 07:31:59;;;;;;;5.45;3.97;;;;;;;25.60;46.55;99908.94;4885041;29;20029;-87
2022/08/19 07:34:26;;;;;;;5.35;3.92;;;;;;;25.60;46.44;99906.28;4854915;29;20044;-88
2022/08/19 07:36:53;;;;;;;4.55;3.42;;;;;;;25.59;46.40;99907.25;4857542;29;20065;-90
2022/08/19 07:39:28;;;;;;;5.10;3.83;;;;;;;25.60;46.55;99912.47;4887396;29;20365;-89
2022/08/19 07:41:59;;;;;;;5.63;3.55;;;;;;;25.61;46.45;99910.66;4856472;29;20017;-88
2022/08/19 07:44:25;;;;;;;5.47;3.72;;;;;;;25.61;46.58;99926.66;4855665;29;20030;-88
2022/08/19 07:46:55;;;;;;;4.72;3.35;;;;;;;25.62;46.47;99927.53;4855840;29;20037;-89
2022/08/19 07:49:22;;;;;;;6.00;4.10;;;;;;;25.61;46.43;99926.66;4857454;29;20040;-88
2022/08/19 07:52:01;;;;;;;4.95;3.17;;;;;;;25.62;46.63;99919.53;4857853;29;20035;-88
2022/08/19 07:54:29;;;;;;;5.13;3.80;;;;;;;25.61;46.43;99921.34;4854458;29;20029;-88
2022/08/19 07:56:55;;;;;;;5.70;4.20;;;;;;;25.59;46.74;99907.25;4853978;29;20033;-88
2022/08/19 07:59:22;;;;;;;5.40;4.03;;;;;;;25.61;46.71;99915.97;4853588;29;20463;-88
2022/08/19 08:01:49;;;;;;;5.68;4.20;;;;;;;25.62;46.53;99912.38;4854333;29;20485;-87
2022/08/19 08:09:45;;;;;;;5.20;4.00;;;;;;;25.63;46.49;99914.06;4871062;29;20060;-87
2022/08/19 08:12:24;;;;;;;5.20;3.70;;;;;;;25.62;46.54;99912.38;4854812;29;20424;-88
2022/08/19 08:14:53;;;;;;;5.18;3.95;;;;;;;25.61;46.33;99910.66;4854659;29;20037;-87
2022/08/19 08:17:21;;;;;;;4.90;3.63;;;;;;;25.61;46.46;99915.97;4854094;29;20033;-87
2022/08/19 08:19:49;;;;;;;6.78;3.90;;;;;;;25.62;46.53;99922.19;4855135;29;20057;-88
2022/08/19 08:25:18;;;;;;;5.10;3.20;;;;;;;25.63;46.79;99918.56;4858339;29;20052;-87
2022/08/19 08:27:45;;;;;;;4.72;3.17;;;;;;;25.63;46.54;99914.06;4854563;29;20368;-88
2022/08/19 08:30:17;;;;;;;4.65;3.40;;;;;;;25.63;46.50;99911.41;4853844;29;20029;-89
2022/08/19 08:32:43;;;;;;;5.15;3.33;;;;;;;25.62;46.37;99917.72;4854533;29;20105;-88
2022/08/19 08:35:12;;;;;;;6.25;3.88;;;;;;;25.62;46.62;99915.03;4854767;29;20033;-88
2022/08/19 08:37:38;;;;;;;4.75;3.78;;;;;;;25.63;46.31;99922.09;4854508;29;20025;-89
2022/08/19 08:40:44;;;;;;;4.75;3.17;;;;;;;25.64;46.54;99914.91;4854595;29;20026;-88
2022/08/19 08:43:30;;;;;;;4.20;3.35;;;;;;;25.63;46.46;99914.06;4854794;29;20371;-89
2022/08/19 08:46:22;;;;;;;5.20;3.17;;;;;;;25.63;46.46;99908.72;4854046;29;20045;-89
2022/08/19 08:49:16;;;;;;;5.93;3.85;;;;;;;25.64;46.47;99915.78;4854955;29;20356;-91
2022/08/19 08:51:47;;;;;;;5.57;4.00;;;;;;;25.65;46.53;99911.28;4855230;29;20041;-90
2022/08/19 08:54:18;;;;;;;5.78;4.07;;;;;;;25.65;46.46;99909.47;4854872;29;20029;-89
2022/08/19 08:56:45;;;;;;;4.85;3.70;;;;;;;25.65;46.47;99904.13;4856030;29;20029;-89
2022/08/19 08:59:32;;;;;;;4.85;3.90;;;;;;;25.67;46.66;99907.50;4855703;29;20035;-87
2022/08/19 09:01:59;;;;;;;4.75;3.58;;;;;;;25.68;46.68;99901.22;4871879;29;20058;-90
2022/08/19 09:04:25;;;;;;;5.60;3.65;;;;;;;25.66;46.43;99900.47;4871556;29;20115;-88
2022/08/19 09:07:18;;;;;;;5.03;3.50;;;;;;;25.66;46.67;99907.66;4854847;29;20048;-89
2022/08/19 09:09:48;;;;;;;4.40;3.47;;;;;;;25.66;46.59;99915.66;4855763;29;20441;-88
2022/08/19 09:12:41;;;;;;;5.65;3.58;;;;;;;25.66;46.60;99908.50;4855633;29;20440;-89
2022/08/19 09:15:11;;;;;;;5.30;3.60;;;;;;;25.67;46.50;99912.84;4886061;29;20089;-89
2022/08/19 09:17:38;;;;;;;5.15;3.15;;;;;;;25.69;46.63;99908.28;4855967;29;20033;-89
2022/08/19 09:20:10;;;;;;;5.40;3.67;;;;;;;25.66;46.61;99911.16;4859333;29;20029;-89
2022/08/19 09:22:40;;;;;;;4.72;3.33;;;;;;;25.70;46.59;99909.09;4877064;29;20058;-88
2022/08/19 09:25:08;;;;;;;5.78;3.78;;;;;;;25.70;46.43;99907.31;4862855;29;20044;-90
2022/08/19 09:27:37;;;;;;;5.28;4.00;;;;;;;25.71;46.55;99900.16;4863713;29;20049;-89
2022/08/19 09:30:04;;;;;;;4.95;3.40;;;;;;;25.70;46.55;99909.09;4864134;29;20028;-88
2022/08/19 09:32:30;;;;;;;5.72;3.50;;;;;;;25.71;46.43;99911.69;4860990;29;20038;-89
2022/08/19 09:34:57;;;;;;;4.32;3.08;;;;;;;25.70;46.64;99912.66;4858689;29;20037;-87
2022/08/19 09:37:24;;;;;;;4.75;3.20;;;;;;;25.71;46.70;99911.69;4854566;29;20045;-89
2022/08/19 09:39:50;;;;;;;4.60;3.40;;;;;;;25.73;46.44;99914.25;4871294;29;20116;-87
2022/08/19 09:42:16;;;;;;;4.40;2.80;;;;;;;25.72;46.35;99902.69;4854326;29;20447;-89
2022/08/19 09:44:42;;;;;;;3.92;3.10;;;;;;;25.73;46.25;99915.06;4854875;29;20070;-87
2022/08/19 09:47:13;;;;;;;5.82;3.70;;;;;;;25.72;46.35;99908.03;4854918;29;20033;-87
2022/08/19 09:49:40;;;;;;;5.45;3.65;;;;;;;25.73;46.24;99915.06;4853805;29;20044;-89
2022/08/19 09:52:08;;;;;;;5.15;3.58;;;;;;;25.75;46.29;99914.97;4853475;29;20068;-88
2022/08/19 09:54:34;;;;;;;4.70;2.97;;;;;;;25.77;46.42;99909.50;4853594;29;20029;-89
2022/08/19 09:57:00;;;;;;;3.78;2.80;;;;;;;25.77;46.43;99909.50;4854207;29;20029;-89
2022/08/19 09:59:27;;;;;;;4.43;3.22;;;;;;;25.80;46.64;99909.31;4854095;29;20045;-90
2022/08/19 10:01:53;;;;;;;4.00;3.10;;;;;;;25.80;46.13;99904.78;4854408;29;20066;-89
2022/08/19 10:04:20;;;;;;;4.47;3.22;;;;;;;25.81;46.28;99901.16;4853943;29;20111;-88
2022/08/19 10:06:48;;;;;;;4.43;3.50;;;;;;;25.82;46.21;99902.00;4855511;29;20029;-89
2022/08/19 10:09:16;;;;;;;5.20;3.20;;;;;;;25.84;46.06;99897.38;4856329;29;20041;-89
2022/08/19 10:11:46;;;;;;;4.82;3.42;;;;;;;25.84;46.39;99900.06;4854449;29;20029;-89
2022/08/19 10:14:11;;;;;;;4.35;3.50;;;;;;;25.83;46.51;99893.03;4852261;29;20044;-87
2022/08/19 10:16:38;;;;;;;5.10;3.20;;;;;;;25.85;45.99;99891.06;4868169;29;20045;-88
2022/08/19 10:19:04;;;;;;;5.35;3.67;;;;;;;25.84;46.06;99894.72;4883269;29;20085;-89
2022/08/19 10:21:34;;;;;;;5.20;3.47;;;;;;;25.86;46.49;99898.97;4867589;29;20121;-88
2022/08/19 10:24:03;;;;;;;4.20;3.10;;;;;;;25.89;46.28;99903.25;4852052;29;20037;-87
2022/08/19 10:26:32;;;;;;;4.72;3.40;;;;;;;25.91;46.22;99890.59;4851799;29;20033;-87
2022/08/19 10:28:58;;;;;;;4.70;3.40;;;;;;;25.90;46.32;99891.59;4853194;29;20376;-87
2022/08/19 10:31:31;;;;;;;5.90;3.65;;;;;;;25.91;46.35;99895.97;4883148;29;20387;-88
2022/08/19 10:33:57;;;;;;;5.00;3.80;;;;;;;25.91;46.54;99898.63;4854035;29;20108;-86
2022/08/19 10:36:32;;;;;;;5.50;3.42;;;;;;;25.92;46.03;99891.47;4852217;29;20085;-86
2022/08/19 10:39:01;;;;;;;4.80;3.58;;;;;;;25.92;46.18;99892.34;4854220;29;20364;-91
2022/08/19 10:41:34;;;;;;;5.60;3.55;;;;;;;25.94;45.88;99885.03;4851997;29;20060;-88
2022/08/19 10:44:05;;;;;;;5.03;3.15;;;;;;;25.94;45.95;99886.84;4870722;29;20517;-90
2022/08/19 10:46:33;;;;;;;4.25;3.08;;;;;;;25.95;46.08;99886.75;4855675;29;20033;-89
2022/08/19 10:49:01;;;;;;;4.38;3.20;;;;;;;25.97;46.22;99890.19;4872539;29;20029;-89
2022/08/19 10:54:10;;;;;;;4.72;3.53;;;;;;;25.99;45.78;99887.38;4872547;29;20047;-88
2022/08/19 10:56:51;;;;;;;4.32;3.33;;;;;;;26.00;46.21;99889.94;4886727;29;20128;-87
2022/08/19 10:59:28;;;;;;;5.32;3.40;;;;;;;26.03;46.07;99882.63;4857199;29;20025;-89
2022/08/19 11:01:59;;;;;;;4.75;3.70;;;;;;;26.05;46.04;99878.03;4855779;29;20378;-88
2022/08/19 11:04:25;;;;;;;5.15;3.55;;;;;;;26.06;46.15;99874.38;4856258;29;20037;-90
2022/08/19 11:06:51;;;;;;;4.65;3.47;;;;;;;26.07;45.84;99870.75;4857762;29;20044;-89
2022/08/19 11:09:27;;;;;;;4.45;3.17;;;;;;;26.08;46.18;99870.63;4857135;29;20033;-87
2022/08/19 11:11:53;;;;;;;5.78;3.67;;;;;;;26.10;46.06;99870.53;4886715;29;20041;-87
2022/08/19 11:14:20;;;;;;;5.57;4.03;;;;;;;26.11;45.70;99870.38;4856639;29;20468;-89
2022/08/19 11:16:48;;;;;;;5.45;3.78;;;;;;;26.14;46.02;99874.63;4872803;29;20043;-88
2022/08/19 11:19:16;;;;;;;5.68;3.85;;;;;;;26.16;45.89;99872.72;4855848;29;20068;-87
2022/08/19 11:21:45;;;;;;;5.75;3.97;;;;;;;26.16;46.05;99867.38;4858182;29;20022;-88
2022/08/19 11:24:19;;;;;;;5.75;4.00;;;;;;;26.17;45.97;99863.72;4857271;29;20436;-86
2022/08/19 11:26:46;;;;;;;4.95;3.88;;;;;;;26.22;45.61;99861.56;4886559;29;20052;-87
2022/08/19 11:29:13;;;;;;;5.47;3.88;;;;;;;26.21;45.94;99865.19;4872692;29;20034;-89
2022/08/19 11:31:42;;;;;;;5.28;3.55;;;;;;;26.22;45.90;99864.22;4856818;29;20036;-89
2022/08/19 11:34:11;;;;;;;5.07;3.90;;;;;;;26.24;45.84;99867.66;4857985;29;20040;-88
2022/08/19 11:36:40;;;;;;;5.40;3.85;;;;;;;26.25;45.72;99864.00;4859298;29;20097;-87
2022/08/19 11:39:07;;;;;;;5.38;4.00;;;;;;;26.27;45.53;99864.75;4858901;29;20044;-89
2022/08/19 11:41:34;;;;;;;4.97;3.75;;;;;;;26.29;45.53;99863.78;4858984;29;20025;-87
2022/08/19 11:44:00;;;;;;;5.13;3.53;;;;;;;26.31;45.77;99859.16;4861159;29;20033;-89
2022/08/19 11:46:29;;;;;;;5.80;4.00;;;;;;;26.32;45.54;99861.72;4879837;29;20037;-90
2022/08/19 11:48:57;;;;;;;4.82;3.88;;;;;;;26.33;45.75;99852.72;4862285;29;20033;-88
2022/08/19 11:51:24;;;;;;;6.25;3.53;;;;;;;26.35;45.47;99863.31;4862154;29;20117;-89
2022/08/19 11:53:51;;;;;;;5.22;4.03;;;;;;;26.36;45.57;99857.84;4863335;29;20025;-89
2022/08/19 11:56:18;;;;;;;5.60;4.07;;;;;;;26.37;45.39;99859.53;4855031;29;20456;-88
2022/08/19 11:58:44;;;;;;;5.38;3.90;;;;;;;26.37;45.38;99858.66;4852819;29;20128;-89
2022/08/19 12:01:15;;;;;;;4.90;3.83;;;;;;;26.39;45.46;99856.75;4854474;29;20029;-88